createdAt,value
2022-09-23T00:01:20.311Z,95411.63
2022-09-23T00:03:49.128Z,95414.59
2022-09-23T00:06:22.784Z,95414.22
2022-09-23T00:08:51.232Z,95415.38
2022-09-23T00:11:27.050Z,95407.19
2022-09-23T00:13:58.015Z,95410.16
2022-09-23T00:16:34.006Z,95412.25
2022-09-23T00:19:02.804Z,95411.88
2022-09-23T00:21:30.029Z,95406.34
2022-09-23T00:23:56.974Z,95408.44
2022-09-23T00:26:25.068Z,95407.81
2022-09-23T00:28:52.532Z,95406.00
2022-09-23T00:31:26.155Z,95391.16
2022-09-23T00:33:56.675Z,95399.66
2022-09-23T00:36:25.387Z,95391.66
2022-09-23T00:38:53.644Z,95388.75
2022-09-23T00:41:21.495Z,95387.91
2022-09-23T00:43:58.881Z,95382.84
2022-09-23T00:46:34.937Z,95371.59
2022-09-23T00:49:25.180Z,95372.56
2022-09-23T00:52:02.798Z,95377.09
2022-09-23T00:54:30.236Z,95373.19
2022-09-23T00:56:59.783Z,95376.13
2022-09-23T00:59:29.128Z,95369.59
2022-09-23T01:01:59.236Z,95379.34
2022-09-23T01:04:30.280Z,95370.72
2022-09-23T01:06:57.291Z,95364.69
2022-09-23T01:09:25.728Z,95366.97
2022-09-23T01:12:13.005Z,95358.84
2022-09-23T01:14:56.341Z,95356.75
2022-09-23T01:17:54.940Z,95357.06
2022-09-23T01:20:47.119Z,95357.75
2022-09-23T01:23:40.346Z,95351.38
2022-09-23T01:27:06.210Z,95351.22
2022-09-23T01:30:08.527Z,95350.25
2022-09-23T01:33:04.953Z,95349.09
2022-09-23T01:35:47.607Z,95340.31
2022-09-23T01:38:38.998Z,95342.75
2022-09-23T01:41:42.631Z,95340.81
2022-09-23T01:44:29.805Z,95347.81
2022-09-23T01:47:37.098Z,95340.31
2022-09-23T01:50:36.487Z,95338.00
2022-09-23T01:53:12.169Z,95342.25
2022-09-23T01:55:47.553Z,95343.22
2022-09-23T01:58:25.320Z,95333.44
2022-09-23T02:01:04.273Z,95327.22
2022-09-23T02:03:55.293Z,95330.81
2022-09-23T02:06:36.498Z,95333.78
2022-09-23T02:09:13.058Z,95331.97
2022-09-23T02:11:45.177Z,95326.91
2022-09-23T02:14:31.512Z,95321.38
2022-09-23T02:17:09.468Z,95325.75
2022-09-23T02:19:47.976Z,95322.47
2022-09-23T02:22:30.181Z,95317.75
2022-09-23T02:24:58.300Z,95315.28
2022-09-23T02:28:06.539Z,95321.50
2022-09-23T02:30:46.672Z,95318.06
2022-09-23T02:33:30.475Z,95322.47
2022-09-23T02:36:09.455Z,95318.22
2022-09-23T02:38:45.136Z,95310.88
2022-09-23T02:41:38.984Z,95317.41
2022-09-23T02:44:17.113Z,95313.13
2022-09-23T02:46:44.662Z,95320.59
2022-09-23T02:49:23.305Z,95317.00
2022-09-23T02:51:51.292Z,95321.88
2022-09-23T02:54:26.065Z,95319.06
2022-09-23T02:56:53.503Z,95307.13
2022-09-23T02:59:23.113Z,95307.28
2022-09-23T03:02:17.773Z,95310.34
2022-09-23T03:05:18.129Z,95315.66
2022-09-23T03:08:19.403Z,95307.50
2022-09-23T03:11:13.736Z,95311.41
2022-09-23T03:14:07.026Z,95306.50
2022-09-23T03:16:47.704Z,95303.59
2022-09-23T03:19:42.308Z,95293.97
2022-09-23T03:22:16.357Z,95293.97
2022-09-23T03:24:46.126Z,95303.09
2022-09-23T03:27:23.433Z,95300.19
2022-09-23T03:29:53.368Z,95304.94
2022-09-23T03:32:23.790Z,95287.22
2022-09-23T03:34:55.365Z,95296.19
2022-09-23T03:38:25.918Z,95289.03
2022-09-23T03:40:56.307Z,95290.22
2022-09-23T03:43:23.626Z,95293.00
2022-09-23T03:45:57.720Z,95293.50
2022-09-23T03:48:25.972Z,95293.84
2022-09-23T03:50:53.032Z,95291.91
2022-09-23T03:53:21.238Z,95290.94
2022-09-23T03:55:48.459Z,95296.63
2022-09-23T03:58:16.105Z,95289.78
2022-09-23T04:00:44.401Z,95293.19
2022-09-23T04:03:12.086Z,95293.19
2022-09-23T04:05:39.507Z,95283.56
2022-09-23T04:08:07.148Z,95302.03
2022-09-23T04:10:34.482Z,95295.31
2022-09-23T04:13:02.111Z,95286.69
2022-09-23T04:15:29.247Z,95291.41
2022-09-23T04:17:56.559Z,95286.97
2022-09-23T04:20:23.919Z,95291.41
2022-09-23T04:22:50.997Z,95291.06
2022-09-23T04:25:18.266Z,95290.09
2022-09-23T04:27:45.497Z,95286.00
2022-09-23T04:30:14.035Z,95291.06
2022-09-23T04:32:41.300Z,95280.44
2022-09-23T04:35:08.821Z,95282.22
2022-09-23T04:37:36.565Z,95276.00
2022-09-23T04:40:04.041Z,95279.06
2022-09-23T04:42:31.279Z,95271.09
2022-09-23T04:44:58.921Z,95281.28
2022-09-23T04:47:26.248Z,95275.75
2022-09-23T04:49:57.752Z,95268.34
2022-09-23T04:52:27.223Z,95284.81
2022-09-23T04:54:54.259Z,95279.88
2022-09-23T04:57:21.335Z,95282.28
2022-09-23T04:59:49.133Z,95290.47
2022-09-23T05:02:16.767Z,95287.69
2022-09-23T05:04:44.515Z,95272.38
2022-09-23T05:07:12.148Z,95281.22
2022-09-23T05:09:39.480Z,95277.00
2022-09-23T05:12:07.270Z,95280.25
2022-09-23T05:14:34.743Z,95283.72
2022-09-23T05:17:02.210Z,95279.31
2022-09-23T05:19:29.574Z,95291.72
2022-09-23T05:21:56.941Z,95291.56
2022-09-23T05:24:25.218Z,95288.81
2022-09-23T05:26:54.144Z,95292.91
2022-09-23T05:29:21.211Z,95286.72
2022-09-23T05:31:48.663Z,95286.72
2022-09-23T05:34:15.765Z,95293.94
2022-09-23T05:36:43.620Z,95284.66
2022-09-23T05:39:11.061Z,95295.81
2022-09-23T05:41:38.621Z,95290.75
2022-09-23T05:44:06.133Z,95287.69
2022-09-23T05:46:33.631Z,95299.63
2022-09-23T05:49:03.492Z,95292.94
2022-09-23T05:51:33.130Z,95286.44
2022-09-23T05:54:03.019Z,95289.72
2022-09-23T05:56:31.625Z,95290.88
2022-09-23T05:59:00.995Z,95281.91
2022-09-23T06:01:34.106Z,95294.81
2022-09-23T06:04:05.186Z,95295.63
2022-09-23T06:06:39.322Z,95299.22
2022-09-23T06:09:09.885Z,95298.56
2022-09-23T06:11:37.518Z,95289.09
2022-09-23T06:14:05.327Z,95294.03
2022-09-23T06:16:35.209Z,95286.81
2022-09-23T06:19:06.174Z,95295.63
2022-09-23T06:21:36.285Z,95296.97
2022-09-23T06:24:04.512Z,95295.78
2022-09-23T06:26:33.954Z,95298.56
2022-09-23T06:29:06.086Z,95297.72
2022-09-23T06:31:34.744Z,95295.28
2022-09-23T06:34:10.682Z,95292.31
2022-09-23T06:36:46.192Z,95305.84
2022-09-23T06:39:17.102Z,95307.00
2022-09-23T06:41:45.192Z,95309.72
2022-09-23T06:44:16.066Z,95306.44
2022-09-23T06:46:44.227Z,95296.00
2022-09-23T06:49:12.326Z,95297.78
2022-09-23T06:51:40.344Z,95305.94
2022-09-23T06:54:08.059Z,95310.31
2022-09-23T06:56:39.132Z,95307.66
2022-09-23T06:59:10.452Z,95289.97
2022-09-23T07:01:38.127Z,95301.34
2022-09-23T07:04:05.310Z,95298.41
2022-09-23T07:06:32.325Z,95303.88
2022-09-23T07:09:00.861Z,95303.34
2022-09-23T07:11:27.878Z,95311.81
2022-09-23T07:13:55.265Z,95304.06
2022-09-23T07:16:22.548Z,95307.00
2022-09-23T07:18:49.571Z,95305.47
2022-09-23T07:21:18.601Z,95294.19
2022-09-23T07:23:48.710Z,95308.31
2022-09-23T07:26:18.034Z,95309.25
2022-09-23T07:28:45.616Z,95303.13
2022-09-23T07:31:29.398Z,95309.91
2022-09-23T07:34:01.338Z,95299.09
2022-09-23T07:36:31.373Z,95303.53
2022-09-23T07:39:03.626Z,95297.41
2022-09-23T07:41:32.947Z,95303.38
2022-09-23T07:44:00.613Z,95309.47
2022-09-23T07:46:31.676Z,95301.97
2022-09-23T07:48:59.746Z,95305.81
2022-09-23T07:51:36.665Z,95305.53
2022-09-23T07:54:10.712Z,95308.47
2022-09-23T07:56:38.724Z,95309.81
2022-09-23T07:59:09.023Z,95313.78
2022-09-23T08:01:40.077Z,95315.13
2022-09-23T08:04:14.436Z,95321.31
2022-09-23T08:06:44.227Z,95320.84
2022-09-23T08:09:11.880Z,95320.09
2022-09-23T08:11:41.726Z,95317.63
2022-09-23T08:14:13.615Z,95323.56
2022-09-23T08:16:47.246Z,95316.97
2022-09-23T08:19:15.597Z,95321.47
2022-09-23T08:21:43.720Z,95321.59
2022-09-23T08:24:18.790Z,95313.59
2022-09-23T08:26:48.051Z,95313.28
2022-09-23T08:29:17.678Z,95309.69
2022-09-23T08:31:45.509Z,95310.34
2022-09-23T08:34:12.839Z,95309.78
2022-09-23T08:36:40.067Z,95309.22
2022-09-23T08:39:07.530Z,95311.28
2022-09-23T08:42:00.554Z,95307.28
2022-09-23T08:44:37.722Z,95300.25
2022-09-23T08:47:12.093Z,95299.69
2022-09-23T08:50:20.284Z,95293.88
2022-09-23T08:52:57.014Z,95300.38
2022-09-23T08:55:34.363Z,95293.72
2022-09-23T08:58:26.515Z,95291.94
2022-09-23T09:01:02.349Z,95290.75
2022-09-23T09:04:01.860Z,95279.81
2022-09-23T09:06:52.321Z,95275.59
2022-09-23T09:09:46.748Z,95272.59
2022-09-23T09:12:32.717Z,95271.78
2022-09-23T09:15:09.326Z,95265.91
2022-09-23T09:17:54.966Z,95275.84
2022-09-23T09:20:43.623Z,95275.63
2022-09-23T09:23:36.933Z,95268.91
2022-09-23T09:26:06.367Z,95268.72
2022-09-23T09:29:11.456Z,95260.16
2022-09-23T09:31:50.062Z,95275.38
2022-09-23T09:34:54.728Z,95261.16
2022-09-23T09:37:44.569Z,95261.16
2022-09-23T09:40:13.012Z,95265.78
2022-09-23T09:42:42.529Z,95257.03
2022-09-23T09:45:24.206Z,95260.66
2022-09-23T09:48:39.400Z,95249.63
2022-09-23T09:51:24.603Z,95254.47
2022-09-23T09:53:52.684Z,95245.13
2022-09-23T09:56:34.191Z,95254.78
2022-09-23T09:59:11.652Z,95241.97
2022-09-23T10:01:39.226Z,95244.97
2022-09-23T10:04:35.559Z,95250.19
2022-09-23T10:07:16.949Z,95249.13
2022-09-23T10:09:51.957Z,95243.78
2022-09-23T10:12:25.241Z,95239.69
2022-09-23T10:14:57.167Z,95234.13
2022-09-23T10:17:33.139Z,95234.91
2022-09-23T10:20:07.863Z,95236.44
2022-09-23T10:22:42.376Z,95236.81
2022-09-23T10:25:20.176Z,95232.56
2022-09-23T10:27:47.511Z,95238.00
2022-09-23T10:30:23.097Z,95230.88
2022-09-23T10:32:54.867Z,95225.38
2022-09-23T10:35:24.502Z,95236.69
2022-09-23T10:37:53.505Z,95232.16
2022-09-23T10:41:00.311Z,95224.97
2022-09-23T10:44:14.098Z,95224.28
2022-09-23T10:47:16.495Z,95211.88
2022-09-23T10:50:23.961Z,95216.66
2022-09-23T10:53:34.920Z,95199.16
2022-09-23T10:56:23.177Z,95210.84
2022-09-23T10:59:20.289Z,95201.88
2022-09-23T11:02:35.906Z,95194.31
2022-09-23T11:05:15.312Z,95196.44
2022-09-23T11:08:14.862Z,95192.66
2022-09-23T11:11:00.432Z,95182.78
2022-09-23T11:13:40.785Z,95187.56
2022-09-23T11:16:38.992Z,95178.47
2022-09-23T11:19:33.719Z,95173.47
2022-09-23T11:22:18.533Z,95168.78
2022-09-23T11:25:19.317Z,95165.38
2022-09-23T11:28:10.951Z,95164.81
2022-09-23T11:31:27.310Z,95162.75
2022-09-23T11:34:22.337Z,95157.22
2022-09-23T11:36:57.974Z,95151.94
2022-09-23T11:39:32.129Z,95163.22
2022-09-23T11:42:02.366Z,95152.97
2022-09-23T11:44:48.501Z,95144.50
2022-09-23T11:47:23.822Z,95145.63
2022-09-23T11:50:17.751Z,95138.28
2022-09-23T11:52:51.860Z,95130.00
2022-09-23T11:55:27.465Z,95135.13
2022-09-23T11:58:00.036Z,95131.69
2022-09-23T12:00:36.449Z,95136.53
2022-09-23T12:03:22.713Z,95127.50
2022-09-23T12:06:03.529Z,95127.91
2022-09-23T12:08:35.443Z,95128.50
2022-09-23T12:11:26.606Z,95113.09
2022-09-23T12:14:33.666Z,95115.47
2022-09-23T12:17:46.602Z,95124.81
2022-09-23T12:20:35.456Z,95119.75
2022-09-23T12:23:33.483Z,95117.81
2022-09-23T12:26:08.247Z,95100.94
2022-09-23T12:28:40.728Z,95099.53
2022-09-23T12:31:18.760Z,95103.13
2022-09-23T12:33:54.127Z,95099.50
2022-09-23T12:36:35.390Z,95096.66
2022-09-23T12:39:20.234Z,95101.25
2022-09-23T12:41:50.709Z,95106.63
2022-09-23T12:44:41.938Z,95088.19
2022-09-23T12:47:15.284Z,95084.19
2022-09-23T12:49:43.689Z,95087.09
2022-09-23T12:52:16.604Z,95084.59
2022-09-23T12:55:15.313Z,95071.66
2022-09-23T12:57:42.748Z,95081.41
2022-09-23T13:00:23.081Z,95069.63
2022-09-23T13:03:10.049Z,95071.56
2022-09-23T13:06:25.706Z,95068.31
2022-09-23T13:08:53.228Z,95055.72
2022-09-23T13:11:29.428Z,95058.94
2022-09-23T13:14:04.304Z,95048.34
2022-09-23T13:16:41.655Z,95042.13
2022-09-23T13:19:27.134Z,95040.94
2022-09-23T13:21:54.158Z,95046.09
2022-09-23T13:24:34.937Z,95036.09
2022-09-23T13:27:27.075Z,95035.19
2022-09-23T13:30:05.991Z,95026.63
2022-09-23T13:32:47.266Z,95023.13
2022-09-23T13:35:15.721Z,95007.81
2022-09-23T13:37:51.772Z,95004.78
2022-09-23T13:40:27.086Z,95003.59
2022-09-23T13:43:10.865Z,95006.84
2022-09-23T13:45:43.030Z,94995.22
2022-09-23T13:48:15.331Z,94996.81
2022-09-23T13:50:51.197Z,94995.53
2022-09-23T13:53:31.898Z,94998.19
2022-09-23T13:56:15.088Z,94993.84
2022-09-23T13:58:43.407Z,94989.63
2022-09-23T14:01:31.360Z,94983.69
2022-09-23T14:03:58.641Z,94981.66
2022-09-23T14:06:29.659Z,94977.69
2022-09-23T14:08:58.404Z,94968.59
2022-09-23T14:11:35.444Z,94974.00
2022-09-23T14:14:07.859Z,94973.22
2022-09-23T14:16:40.896Z,94977.03
2022-09-23T14:19:15.785Z,94982.28
2022-09-23T14:21:43.181Z,94975.91
2022-09-23T14:24:22.214Z,94965.56
2022-09-23T14:27:15.701Z,94973.50
2022-09-23T14:29:48.290Z,94972.38
2022-09-23T14:32:26.244Z,94968.84
2022-09-23T14:35:19.644Z,94963.44
2022-09-23T14:38:10.994Z,94963.88
2022-09-23T14:40:50.887Z,94958.44
2022-09-23T14:43:26.081Z,94952.88
2022-09-23T14:45:56.881Z,94944.41
2022-09-23T14:48:32.330Z,94948.06
2022-09-23T14:51:02.943Z,94952.16
2022-09-23T14:53:50.541Z,94945.72
2022-09-23T14:56:23.189Z,94944.66
2022-09-23T14:58:57.813Z,94940.94
2022-09-23T15:01:38.558Z,94948.28
2022-09-23T15:04:23.084Z,94941.75
2022-09-23T15:07:00.054Z,94944.16
2022-09-23T15:09:41.315Z,94946.94
2022-09-23T15:12:22.108Z,94942.34
2022-09-23T15:14:54.291Z,94947.34
2022-09-23T15:17:24.298Z,94946.56
2022-09-23T15:19:59.913Z,94943.69
2022-09-23T15:22:27.302Z,94957.59
2022-09-23T15:25:10.762Z,94953.88
2022-09-23T15:27:39.205Z,94942.97
2022-09-23T15:30:15.423Z,94946.75
2022-09-23T15:32:44.620Z,94946.50
2022-09-23T15:35:21.815Z,94946.41
2022-09-23T15:37:51.698Z,94949.75
2022-09-23T15:40:29.161Z,94948.56
2022-09-23T15:42:58.870Z,94944.94
2022-09-23T15:45:37.512Z,94943.50
2022-09-23T15:48:08.257Z,94946.13
2022-09-23T15:50:36.757Z,94946.56
2022-09-23T15:53:06.322Z,94946.69
2022-09-23T15:55:33.863Z,94947.34
2022-09-23T15:58:01.623Z,94956.81
2022-09-23T16:00:28.690Z,94955.25
2022-09-23T16:02:57.231Z,94955.25
2022-09-23T16:05:36.470Z,94957.09
2022-09-23T16:08:08.977Z,94956.75
2022-09-23T16:10:37.835Z,94954.78
2022-09-23T16:13:09.757Z,94953.31
2022-09-23T16:15:39.132Z,94951.81
2022-09-23T16:18:08.750Z,94951.66
2022-09-23T16:20:42.788Z,94945.88
2022-09-23T16:23:19.340Z,94946.69
2022-09-23T16:25:46.424Z,94949.38
2022-09-23T16:28:14.787Z,94941.44
2022-09-23T16:30:41.906Z,94946.69
2022-09-23T16:33:08.790Z,94954.19
2022-09-23T16:35:38.296Z,94945.84
2022-09-23T16:38:05.857Z,94951.38
2022-09-23T16:40:33.205Z,94956.03
2022-09-23T16:43:04.297Z,94952.28
2022-09-23T16:45:31.989Z,94964.63
2022-09-23T16:47:59.902Z,94961.41
2022-09-23T16:50:28.707Z,94963.63
2022-09-23T16:52:56.317Z,94958.72
2022-09-23T16:55:25.722Z,94962.59
2022-09-23T16:57:54.061Z,94951.09
2022-09-23T17:00:40.162Z,94953.06
2022-09-23T17:03:26.061Z,94951.81
2022-09-23T17:05:54.709Z,94960.41
2022-09-23T17:08:24.029Z,94953.38
2022-09-23T17:11:00.069Z,94960.59
2022-09-23T17:13:29.596Z,94951.13
2022-09-23T17:15:56.685Z,94948.50
2022-09-23T17:18:23.985Z,94951.81
2022-09-23T17:21:04.281Z,94950.41
2022-09-23T17:23:33.439Z,94950.00
2022-09-23T17:26:02.536Z,94952.78
2022-09-23T17:28:29.653Z,94957.38
2022-09-23T17:31:03.412Z,94952.47
2022-09-23T17:33:32.648Z,94949.97
2022-09-23T17:36:02.700Z,94951.94
2022-09-23T17:38:29.854Z,94957.31
2022-09-23T17:40:59.786Z,94954.75
2022-09-23T17:43:27.656Z,94955.25
2022-09-23T17:46:11.361Z,94955.34
2022-09-23T17:48:44.137Z,94958.44
2022-09-23T17:51:17.409Z,94961.34
2022-09-23T17:53:47.012Z,94962.59
2022-09-23T17:56:25.000Z,94964.47
2022-09-23T17:58:53.973Z,94958.84
2022-09-23T18:01:25.084Z,94961.94
2022-09-23T18:03:59.707Z,94966.44
2022-09-23T18:06:31.796Z,94965.66
2022-09-23T18:09:06.842Z,94966.72
2022-09-23T18:11:37.953Z,94960.66
2022-09-23T18:14:13.151Z,94967.13
2022-09-23T18:16:43.137Z,94967.56
2022-09-23T18:19:16.888Z,94962.91
2022-09-23T18:21:50.747Z,94955.00
2022-09-23T18:24:31.811Z,94958.69
2022-09-23T18:27:00.889Z,94953.84
2022-09-23T18:29:28.559Z,94954.44
2022-09-23T18:31:56.243Z,94952.03
2022-09-23T18:34:23.696Z,94961.56
2022-09-23T18:36:51.089Z,94961.38
2022-09-23T18:39:18.147Z,94959.75
2022-09-23T18:41:45.049Z,94957.13
2022-09-23T18:44:12.654Z,94959.78
2022-09-23T18:46:39.705Z,94952.06
2022-09-23T18:49:25.601Z,94955.75
2022-09-23T18:51:56.078Z,94955.53
2022-09-23T18:54:27.378Z,94953.09
2022-09-23T18:56:55.296Z,94955.72
2022-09-23T18:59:28.222Z,94952.44
2022-09-23T19:01:56.272Z,94957.09
2022-09-23T19:04:25.514Z,94955.47
2022-09-23T19:06:54.803Z,94956.25
2022-09-23T19:09:21.980Z,94957.25
2022-09-23T19:11:53.156Z,94962.47
2022-09-23T19:14:20.586Z,94958.00
2022-09-23T19:16:49.311Z,94963.22
2022-09-23T19:19:16.842Z,94966.84
2022-09-23T19:21:43.861Z,94969.47
2022-09-23T19:24:16.197Z,94956.50
2022-09-23T19:26:44.011Z,94965.34
2022-09-23T19:29:17.094Z,94951.75
2022-09-23T19:31:44.370Z,94955.38
2022-09-23T19:34:17.693Z,94947.84
2022-09-23T19:36:47.833Z,94953.25
2022-09-23T19:39:23.873Z,94956.00
2022-09-23T19:41:53.803Z,94956.16
2022-09-23T19:44:20.923Z,94963.16
2022-09-23T19:46:55.173Z,94957.88
2022-09-23T19:49:25.008Z,94962.69
2022-09-23T19:51:57.242Z,94957.81
2022-09-23T19:54:27.459Z,94954.97
2022-09-23T19:56:55.277Z,94969.28
2022-09-23T19:59:22.274Z,94963.59
2022-09-23T20:01:54.761Z,94964.16
2022-09-23T20:04:26.200Z,94959.50
2022-09-23T20:06:53.233Z,94959.59
2022-09-23T20:09:20.594Z,94965.63
2022-09-23T20:11:49.811Z,94957.72
2022-09-23T20:14:19.393Z,94957.72
2022-09-23T20:16:46.477Z,94959.09
2022-09-23T20:19:13.681Z,94957.66
2022-09-23T20:21:40.739Z,94961.88
2022-09-23T20:24:09.731Z,94960.59
2022-09-23T20:26:55.113Z,94961.97
2022-09-23T20:29:22.336Z,94949.63
2022-09-23T20:31:49.599Z,94953.59
2022-09-23T20:34:16.812Z,94950.38
2022-09-23T20:36:44.271Z,94949.31
2022-09-23T20:39:11.620Z,94950.69
2022-09-23T20:41:39.367Z,94948.63
2022-09-23T20:44:12.185Z,94941.66
2022-09-23T20:46:48.132Z,94938.25
2022-09-23T20:49:20.685Z,94946.50
2022-09-23T20:51:48.938Z,94946.66
2022-09-23T20:54:19.434Z,94944.88
2022-09-23T20:56:47.517Z,94946.06
2022-09-23T20:59:15.015Z,94944.59
2022-09-23T21:01:43.032Z,94936.72
2022-09-23T21:04:10.359Z,94941.53
2022-09-23T21:06:38.949Z,94943.09
2022-09-23T21:09:06.858Z,94941.22
2022-09-23T21:11:34.504Z,94936.53
2022-09-23T21:14:02.120Z,94946.53
2022-09-23T21:16:30.679Z,94939.88
2022-09-23T21:18:58.890Z,94940.22
2022-09-23T21:21:26.807Z,94940.59
2022-09-23T21:23:53.814Z,94944.41
2022-09-23T21:26:25.905Z,94943.13
2022-09-23T21:28:56.990Z,94946.94
2022-09-23T21:31:36.657Z,94934.38
2022-09-23T21:34:14.466Z,94940.78
2022-09-23T21:36:43.502Z,94938.19
2022-09-23T21:39:12.401Z,94929.72
2022-09-23T21:41:40.164Z,94933.47
2022-09-23T21:44:08.634Z,94932.88
2022-09-23T21:46:36.732Z,94936.66
2022-09-23T21:49:05.043Z,94928.19
2022-09-23T21:51:40.875Z,94925.13
2022-09-23T21:54:15.684Z,94927.28
2022-09-23T21:56:44.011Z,94925.66
2022-09-23T21:59:11.265Z,94927.63
2022-09-23T22:01:44.860Z,94917.34
2022-09-23T22:04:17.103Z,94919.34
2022-09-23T22:06:46.934Z,94916.28
2022-09-23T22:09:21.175Z,94914.47
2022-09-23T22:12:09.630Z,94917.44
2022-09-23T22:14:37.054Z,94915.84
2022-09-23T22:17:07.212Z,94913.38
2022-09-23T22:19:45.573Z,94913.38
2022-09-23T22:22:16.197Z,94913.75
2022-09-23T22:24:45.608Z,94924.22
2022-09-23T22:27:16.213Z,94920.78
2022-09-23T22:30:01.475Z,94918.34
2022-09-23T22:32:34.703Z,94909.69
2022-09-23T22:35:01.941Z,94908.06
2022-09-23T22:37:34.852Z,94908.06
2022-09-23T22:40:09.607Z,94908.41
2022-09-23T22:42:37.669Z,94909.59
2022-09-23T22:45:05.841Z,94903.75
2022-09-23T22:47:38.828Z,94905.72
2022-09-23T22:50:08.407Z,94907.50
2022-09-23T22:52:36.176Z,94899.06
2022-09-23T22:55:04.931Z,94900.03
2022-09-23T22:57:31.961Z,94900.38
2022-09-23T22:59:59.202Z,94903.19
2022-09-23T23:02:26.171Z,94899.78
2022-09-23T23:04:53.376Z,94901.94
2022-09-23T23:07:21.501Z,94901.28
2022-09-23T23:09:52.621Z,94895.25
2022-09-23T23:12:21.249Z,94893.75
2022-09-23T23:14:49.508Z,94893.16
2022-09-23T23:17:17.430Z,94897.75
2022-09-23T23:19:45.228Z,94887.47
2022-09-23T23:22:12.210Z,94881.41
2022-09-23T23:24:39.235Z,94888.47
2022-09-23T23:27:06.217Z,94902.31
2022-09-23T23:29:33.300Z,94896.28
2022-09-23T23:32:00.224Z,94905.13
2022-09-23T23:34:27.942Z,94897.94
2022-09-23T23:36:55.930Z,94889.25
2022-09-23T23:39:25.154Z,94889.25
2022-09-23T23:41:55.264Z,94890.28
2022-09-23T23:44:24.507Z,94881.97
2022-09-23T23:46:52.675Z,94891.78
2022-09-23T23:49:20.059Z,94881.84
2022-09-23T23:51:47.848Z,94887.09
2022-09-23T23:54:15.488Z,94888.06
2022-09-23T23:56:43.036Z,94888.06
2022-09-23T23:59:10.319Z,94878.78
